Time;durP1;ratioP1;P1;durP2;ratioP2;P2;SDS_P1;SDS_P2;PMS_P1;PMS_P2;Temp;Humidity;BMP_temperature;BMP_pressure;BME280_temperature;BME280_humidity;BME280_pressure;Samples;Min_cycle;Max_cycle;Signal;HPM_P1;HPM_P2
2022/06/13 00:01:29;;;;;;;17.40;4.70;;;;;;;15.67;78.94;101998.59;5053844;28;20364;-44
2022/06/13 00:03:56;;;;;;;18.63;4.75;;;;;;;15.67;79.43;102003.81;5053495;28;20020;-43
2022/06/13 00:06:21;;;;;;;16.52;4.50;;;;;;;15.60;79.42;101996.97;5053441;28;20025;-43
2022/06/13 00:08:47;;;;;;;17.27;4.57;;;;;;;15.66;79.57;101998.81;5053983;28;20047;-43
2022/06/13 00:11:15;;;;;;;17.95;4.60;;;;;;;15.69;79.35;101999.25;5053346;28;20024;-43
2022/06/13 00:13:43;;;;;;;14.48;4.38;;;;;;;15.74;79.02;101983.84;5053870;28;20116;-43
2022/06/13 00:16:10;;;;;;;16.63;4.85;;;;;;;15.77;78.65;101986.06;5053543;28;20407;-44
2022/06/13 00:18:35;;;;;;;18.35;4.68;;;;;;;15.69;80.43;101973.19;5053287;28;20044;-45
2022/06/13 00:21:02;;;;;;;14.60;5.03;;;;;;;15.75;81.93;101979.44;5053250;28;20025;-43
2022/06/13 00:23:27;;;;;;;14.30;4.78;;;;;;;15.66;83.10;101977.97;5053070;28;20028;-44
2022/06/13 00:25:52;;;;;;;20.98;5.18;;;;;;;15.50;83.58;101987.66;5053223;28;20393;-44
2022/06/13 00:28:18;;;;;;;16.40;4.90;;;;;;;15.42;84.12;101971.38;5053525;28;20065;-42
2022/06/13 00:30:43;;;;;;;16.55;5.18;;;;;;;15.55;84.62;101984.50;5053343;28;20041;-44
2022/06/13 00:33:08;;;;;;;17.98;4.65;;;;;;;15.50;84.03;101974.63;5053187;28;20040;-42
2022/06/13 00:35:34;;;;;;;24.38;5.28;;;;;;;15.59;83.23;101959.66;5051847;28;20059;-43
2022/06/13 00:37:59;;;;;;;19.30;5.07;;;;;;;15.51;83.85;101960.63;5053357;28;20468;-44
2022/06/13 00:40:25;;;;;;;18.88;5.05;;;;;;;15.63;83.07;101960.09;5053000;28;20120;-43
2022/06/13 00:42:50;;;;;;;20.40;5.32;;;;;;;15.71;83.30;101957.38;5053254;28;20043;-43
2022/06/13 00:45:32;;;;;;;13.23;4.63;;;;;;;15.67;82.30;101956.91;5053677;28;20028;-43
2022/06/13 00:47:57;;;;;;;18.02;4.75;;;;;;;15.61;82.42;101956.88;5053588;28;20024;-44
2022/06/13 00:50:34;;;;;;;17.20;4.90;;;;;;;15.65;82.56;101955.47;5053378;28;20029;-44
2022/06/13 00:53:15;;;;;;;19.65;5.22;;;;;;;15.66;82.26;101949.28;5053294;28;20043;-43
2022/06/13 00:55:46;;;;;;;19.58;4.95;;;;;;;15.53;82.29;101947.41;5053164;28;20040;-45
2022/06/13 00:58:12;;;;;;;20.60;5.43;;;;;;;15.39;82.90;101930.88;5052916;28;20052;-42
2022/06/13 01:00:40;;;;;;;17.67;5.40;;;;;;;15.38;82.99;101931.88;5053233;28;20024;-44
2022/06/13 01:03:05;;;;;;;23.13;5.78;;;;;;;15.25;82.96;101940.41;5053257;28;20028;-44
2022/06/13 01:05:35;;;;;;;18.00;5.32;;;;;;;15.30;83.01;101942.44;5053455;28;20079;-42
2022/06/13 01:08:03;;;;;;;19.27;5.63;;;;;;;15.32;82.24;101946.47;5053112;28;20041;-42
2022/06/13 01:13:14;;;;;;;21.38;5.80;;;;;;;15.23;83.05;101950.22;5053622;28;20039;-44
2022/06/13 01:15:58;;;;;;;17.80;5.47;;;;;;;15.18;82.95;101951.78;5052776;28;20033;-42
2022/06/13 01:18:58;;;;;;;18.75;5.95;;;;;;;15.20;82.35;101957.59;5053041;28;20092;-41
2022/06/13 01:21:42;;;;;;;17.30;6.13;;;;;;;15.27;82.63;101951.44;5051934;28;20086;-44
2022/06/13 01:24:25;;;;;;;16.55;5.88;;;;;;;15.22;82.63;101956.44;5053021;28;20025;-43
2022/06/13 01:27:04;;;;;;;18.63;5.63;;;;;;;15.14;82.99;101963.56;5052959;28;20025;-43
2022/06/13 01:29:44;;;;;;;16.35;5.82;;;;;;;15.23;82.99;101960.63;5052939;28;20029;-43
2022/06/13 01:32:51;;;;;;;19.10;5.80;;;;;;;15.36;82.19;101954.69;5053178;28;20044;-42
2022/06/13 01:35:35;;;;;;;16.92;5.72;;;;;;;15.03;84.46;101962.28;5039715;28;20141;-41
2022/06/13 01:38:16;;;;;;;21.45;6.50;;;;;;;15.13;84.17;101954.94;5056457;28;20481;-42
2022/06/13 01:40:58;;;;;;;19.52;6.25;;;;;;;15.20;83.70;101949.78;5056190;28;20365;-44
2022/06/13 01:43:32;;;;;;;16.15;5.95;;;;;;;15.28;83.14;101947.06;5056079;28;20025;-41
2022/06/13 01:46:03;;;;;;;18.15;5.90;;;;;;;15.22;83.80;101940.81;5056347;28;20039;-42
2022/06/13 01:48:40;;;;;;;18.33;6.13;;;;;;;15.28;83.47;101937.44;5056042;28;20021;-43
2022/06/13 01:51:23;;;;;;;16.17;5.90;;;;;;;15.30;83.81;101945.03;5056004;28;20107;-42
2022/06/13 01:54:20;;;;;;;22.70;5.90;;;;;;;15.43;83.86;101945.16;5055839;28;20029;-43
2022/06/13 01:57:00;;;;;;;21.38;6.10;;;;;;;15.34;83.61;101947.09;5055882;28;20494;-41
2022/06/13 01:59:47;;;;;;;21.40;5.97;;;;;;;15.29;84.19;101944.25;5056321;28;20421;-41
2022/06/13 02:02:31;;;;;;;22.20;5.95;;;;;;;15.32;85.10;101954.28;5056012;28;20040;-42
2022/06/13 02:05:03;;;;;;;18.23;6.25;;;;;;;15.15;84.87;101952.16;5055706;28;20025;-43
2022/06/13 02:07:39;;;;;;;20.33;5.93;;;;;;;15.24;85.12;101951.00;5055644;28;20021;-44
2022/06/13 02:10:15;;;;;;;17.90;5.68;;;;;;;15.22;85.48;101951.22;5055776;28;20379;-43
2022/06/13 02:12:44;;;;;;;21.02;6.00;;;;;;;15.31;85.47;101949.28;5056029;28;20056;-42
2022/06/13 02:15:26;;;;;;;21.75;6.50;;;;;;;15.24;85.66;101951.00;5055325;28;20193;-44
2022/06/13 02:17:59;;;;;;;19.40;6.13;;;;;;;15.24;85.90;101951.81;5055930;28;20049;-43
2022/06/13 02:20:30;;;;;;;21.02;6.78;;;;;;;15.20;86.52;101952.41;5055883;28;20059;-44
2022/06/13 02:23:00;;;;;;;20.05;6.45;;;;;;;15.31;86.71;101951.88;5055303;28;20056;-42
2022/06/13 02:25:33;;;;;;;22.77;6.93;;;;;;;15.33;86.56;101949.88;5055345;28;20096;-43
2022/06/13 02:28:25;;;;;;;21.48;7.57;;;;;;;15.28;86.74;101950.47;5055396;28;20033;-47
2022/06/13 02:31:06;;;;;;;23.40;7.10;;;;;;;15.31;87.27;101952.69;5054952;28;20048;-45
2022/06/13 02:33:39;;;;;;;20.23;7.50;;;;;;;15.33;87.15;101952.47;5055048;28;20395;-41
2022/06/13 02:36:13;;;;;;;22.90;6.78;;;;;;;15.40;87.26;101952.53;5055110;28;20139;-43
2022/06/13 02:39:06;;;;;;;28.60;7.85;;;;;;;15.41;87.15;101948.94;5055223;28;20494;-44
2022/06/13 02:41:47;;;;;;;;;;;;;;;15.23;87.77;101944.22;5054956;28;20557;-45
2022/06/13 02:44:24;;;;;;;28.05;7.43;;;;;;;15.24;88.46;101948.41;5054847;28;19909;-43
2022/06/13 02:47:29;;;;;;;22.77;6.82;;;;;;;15.22;88.55;101945.19;5054894;28;20039;-42
2022/06/13 02:50:01;;;;;;;18.60;6.35;;;;;;;15.22;88.20;101948.63;5031800;28;20032;-43
2022/06/13 02:52:44;;;;;;;24.43;6.93;;;;;;;15.16;88.75;101951.94;5055384;28;20025;-43
2022/06/13 02:55:13;;;;;;;20.67;7.40;;;;;;;15.22;88.91;101959.03;5054632;28;20071;-43
2022/06/13 02:57:52;;;;;;;25.48;8.15;;;;;;;15.16;89.29;101964.97;5054697;28;20028;-43
2022/06/13 03:00:33;;;;;;;20.38;7.35;;;;;;;15.19;89.25;101964.63;5055055;28;20021;-42
2022/06/13 03:03:01;;;;;;;24.70;7.70;;;;;;;15.26;89.53;101964.66;5054837;28;20031;-43
2022/06/13 03:05:51;;;;;;;23.17;7.65;;;;;;;15.18;89.88;101968.19;5054502;28;20036;-44
2022/06/13 03:08:36;;;;;;;25.08;7.93;;;;;;;15.25;89.83;101969.06;5054791;28;20515;-43
2022/06/13 03:11:25;;;;;;;28.33;7.82;;;;;;;15.22;89.98;101968.63;5054602;28;20134;-43
2022/06/13 03:14:15;;;;;;;21.90;8.02;;;;;;;15.23;90.22;101965.84;5054274;28;20158;-42
2022/06/13 03:16:53;;;;;;;23.45;7.75;;;;;;;15.33;89.35;101968.09;5054545;28;20529;-44
2022/06/13 03:19:27;;;;;;;24.48;7.10;;;;;;;15.27;89.79;101977.47;5054504;28;20017;-43
2022/06/13 03:22:23;;;;;;;26.00;7.57;;;;;;;15.28;90.10;101967.88;5054124;28;20112;-44
2022/06/13 03:25:07;;;;;;;25.35;7.50;;;;;;;15.23;90.32;101976.25;5054440;28;20052;-44
2022/06/13 03:27:39;;;;;;;25.67;7.72;;;;;;;15.29;90.11;101974.69;5054334;28;20048;-42
2022/06/13 03:30:20;;;;;;;35.53;7.28;;;;;;;15.34;89.31;101978.34;5054093;28;20045;-43
2022/06/13 03:35:44;;;;;;;29.17;7.35;;;;;;;15.32;89.65;101974.31;5054395;28;20056;-42
2022/06/13 03:38:15;;;;;;;19.83;7.40;;;;;;;15.33;89.41;101960.28;5054252;28;20033;-42
2022/06/13 03:40:46;;;;;;;26.60;7.15;;;;;;;15.26;89.77;101967.25;5054258;28;20052;-44
2022/06/13 03:43:16;;;;;;;18.60;7.25;;;;;;;15.34;88.85;101973.13;5054063;28;20481;-43
2022/06/13 03:45:53;;;;;;;22.42;6.88;;;;;;;15.35;89.38;101979.94;5054120;28;20036;-44
2022/06/13 03:48:33;;;;;;;21.15;7.00;;;;;;;15.42;89.21;101979.19;5054128;28;20036;-44
2022/06/13 03:51:16;;;;;;;23.27;6.82;;;;;;;15.26;89.79;101990.69;5052406;28;20028;-42
2022/06/13 03:53:59;;;;;;;24.75;6.95;;;;;;;15.32;89.58;101992.53;5053527;28;20475;-42
2022/06/13 03:56:38;;;;;;;24.40;7.43;;;;;;;15.34;89.14;101993.97;5051930;28;20029;-44
2022/06/13 03:59:11;;;;;;;19.58;6.32;;;;;;;15.32;89.71;101990.75;5052857;28;20039;-44
2022/06/13 04:01:46;;;;;;;24.02;6.93;;;;;;;15.39;89.01;101995.19;5053644;28;20029;-44
2022/06/13 04:04:18;;;;;;;24.15;6.70;;;;;;;15.35;89.46;102000.78;5053851;28;20029;-44
2022/06/13 04:06:43;;;;;;;26.75;7.28;;;;;;;15.39;89.23;102003.81;5053764;28;20348;-42
2022/06/13 04:09:28;;;;;;;27.20;7.68;;;;;;;15.45;88.76;101999.63;5053439;28;20036;-41
2022/06/13 04:12:14;;;;;;;21.77;6.85;;;;;;;15.35;89.04;102003.38;5053733;28;20493;-43
2022/06/13 04:14:54;;;;;;;23.65;6.70;;;;;;;15.34;89.30;102001.78;5053526;28;20068;-43
2022/06/13 04:17:31;;;;;;;19.73;6.93;;;;;;;15.45;89.04;102003.06;5053521;28;20033;-44
2022/06/13 04:20:12;;;;;;;27.05;7.72;;;;;;;15.53;89.17;102004.72;5052057;28;20029;-43
2022/06/13 04:22:57;;;;;;;23.50;6.90;;;;;;;15.51;88.62;101999.72;5053401;28;20087;-43
2022/06/13 04:25:44;;;;;;;25.48;7.25;;;;;;;15.53;88.57;101997.69;5053518;28;20028;-44
2022/06/13 04:28:20;;;;;;;22.42;6.57;;;;;;;15.52;87.73;102003.91;5053241;28;20033;-45
2022/06/13 04:30:48;;;;;;;26.63;6.50;;;;;;;15.62;86.08;102000.97;5053440;28;20049;-44
2022/06/13 04:33:25;;;;;;;22.55;6.38;;;;;;;15.70;85.88;102002.66;5053515;28;20028;-45
2022/06/13 04:35:51;;;;;;;23.15;7.28;;;;;;;15.72;86.68;102005.88;5053389;28;20063;-44
2022/06/13 04:38:19;;;;;;;20.05;6.75;;;;;;;15.74;86.91;102003.91;5053445;28;20025;-43
2022/06/13 04:40:50;;;;;;;26.42;6.75;;;;;;;15.80;87.26;102008.34;5053691;28;20029;-42
2022/06/13 04:43:19;;;;;;;23.10;6.70;;;;;;;15.80;85.70;102008.34;5053426;28;20086;-42
2022/06/13 04:46:08;;;;;;;21.08;6.80;;;;;;;15.94;85.39;102009.19;5053364;28;20371;-43
2022/06/13 04:48:36;;;;;;;22.05;6.07;;;;;;;15.99;85.23;102002.41;5053322;28;20024;-43
2022/06/13 04:51:07;;;;;;;20.25;5.90;;;;;;;16.09;83.55;102007.28;5053262;28;20025;-42
2022/06/13 04:54:02;;;;;;;18.00;5.60;;;;;;;16.11;82.33;102002.69;5052981;28;20032;-42
2022/06/13 04:56:28;;;;;;;19.20;4.85;;;;;;;16.23;80.25;102008.97;5053535;28;20048;-42
2022/06/13 04:58:56;;;;;;;15.25;4.03;;;;;;;16.25;78.27;102006.16;5053013;28;20025;-43
2022/06/13 05:01:32;;;;;;;12.25;3.47;;;;;;;16.25;78.46;102011.38;5052916;28;20075;-44
2022/06/13 05:04:03;;;;;;;12.73;3.20;;;;;;;16.25;75.07;102006.16;5053031;28;20097;-44
2022/06/13 05:06:52;;;;;;;11.23;3.30;;;;;;;16.24;74.39;102015.78;5052674;28;20487;-42
2022/06/13 05:09:20;;;;;;;16.17;3.70;;;;;;;16.36;74.14;102010.00;5054803;28;20029;-43
2022/06/13 05:11:55;;;;;;;10.60;3.05;;;;;;;16.34;73.44;102006.78;5055222;28;20067;-44
2022/06/13 05:14:27;;;;;;;10.48;3.30;;;;;;;16.39;73.53;102023.47;5056396;28;20329;-45
2022/06/13 05:17:25;;;;;;;10.35;3.15;;;;;;;16.48;72.51;102021.47;5056591;28;20025;-43
2022/06/13 05:20:33;;;;;;;11.70;2.90;;;;;;;16.34;71.74;102035.47;5056298;28;20058;-42
2022/06/13 05:23:25;;;;;;;12.10;2.88;;;;;;;16.57;72.52;102032.56;5056207;28;20027;-44
2022/06/13 05:25:55;;;;;;;9.38;2.60;;;;;;;16.60;70.62;102032.16;5056304;28;20028;-43
2022/06/13 05:28:24;;;;;;;12.10;2.83;;;;;;;16.75;70.32;102040.66;5056472;28;20033;-44
2022/06/13 05:30:54;;;;;;;9.23;2.53;;;;;;;16.95;68.38;102045.94;5056194;28;20053;-43
2022/06/13 05:33:27;;;;;;;11.00;2.60;;;;;;;16.91;68.05;102042.09;5056503;28;20463;-41
2022/06/13 05:35:56;;;;;;;;;;;;;;;16.75;68.51;102045.06;5056754;28;20078;-42
2022/06/13 05:38:38;;;;;;;8.43;3.03;;;;;;;16.80;67.99;102043.50;5054756;28;19912;-42
2022/06/13 05:41:04;;;;;;;10.82;2.50;;;;;;;17.01;68.19;102046.97;5055784;28;20036;-42
2022/06/13 05:43:29;;;;;;;11.52;2.58;;;;;;;17.22;65.47;102045.97;5056490;28;20073;-42
2022/06/13 05:45:54;;;;;;;10.25;2.58;;;;;;;16.98;65.42;102047.38;5056053;28;20031;-43
2022/06/13 05:48:21;;;;;;;12.60;2.63;;;;;;;16.91;66.30;102060.38;5055910;28;20020;-44
2022/06/13 05:50:47;;;;;;;11.30;2.50;;;;;;;16.84;66.05;102059.56;5055852;28;20103;-42
2022/06/13 05:53:15;;;;;;;8.55;2.60;;;;;;;16.76;65.98;102057.94;5055728;28;20190;-42
2022/06/13 05:55:42;;;;;;;10.77;2.67;;;;;;;16.88;66.57;102066.00;5055612;28;20483;-41
2022/06/13 05:58:12;;;;;;;11.05;2.33;;;;;;;16.92;66.47;102060.19;5055125;28;20024;-42
2022/06/13 06:00:42;;;;;;;11.63;2.38;;;;;;;17.12;65.42;102070.69;5056167;28;20525;-42
2022/06/13 06:03:08;;;;;;;7.78;1.95;;;;;;;17.85;63.36;102064.66;5055862;28;20017;-44
2022/06/13 06:05:33;;;;;;;11.30;2.35;;;;;;;18.57;59.70;102064.63;5055547;28;20475;-42
2022/06/13 06:07:58;;;;;;;8.90;2.33;;;;;;;18.86;59.64;102079.81;5055465;28;20423;-43
2022/06/13 06:10:30;;;;;;;8.95;2.10;;;;;;;17.93;61.38;102074.13;5055340;28;20025;-43
2022/06/13 06:12:55;;;;;;;9.00;2.08;;;;;;;18.13;60.47;102071.47;5055526;28;20403;-44
2022/06/13 06:15:21;;;;;;;10.65;2.22;;;;;;;18.55;59.64;102085.78;5055138;28;20025;-43
2022/06/13 06:17:46;;;;;;;10.27;2.15;;;;;;;18.89;57.86;102082.00;5055146;28;20130;-44
2022/06/13 06:20:19;;;;;;;7.40;2.30;;;;;;;18.28;59.52;102087.69;5055194;28;20499;-44
2022/06/13 06:22:45;;;;;;;11.05;2.03;;;;;;;17.72;59.69;102090.78;5055726;28;20102;-42
2022/06/13 06:25:10;;;;;;;8.07;2.30;;;;;;;18.71;57.95;102087.94;5054971;28;20403;-43
2022/06/13 06:27:36;;;;;;;12.57;2.53;;;;;;;18.57;58.72;102089.00;5055543;28;20452;-42
2022/06/13 06:30:03;;;;;;;10.27;2.08;;;;;;;18.22;60.34;102091.16;5054881;28;20053;-43
2022/06/13 06:32:28;;;;;;;6.68;1.75;;;;;;;18.37;59.66;102102.16;5055249;28;20384;-43
2022/06/13 06:34:53;;;;;;;9.52;2.00;;;;;;;18.25;59.93;102098.59;5054863;28;20071;-43
2022/06/13 06:37:19;;;;;;;7.18;2.00;;;;;;;18.53;58.99;102098.28;5055214;28;20028;-43
2022/06/13 06:39:44;;;;;;;8.23;2.08;;;;;;;18.31;60.05;102095.13;5054793;28;20029;-42
2022/06/13 06:42:09;;;;;;;7.43;1.90;;;;;;;18.59;59.62;102099.28;5053456;28;20119;-42
2022/06/13 06:44:35;;;;;;;6.32;2.00;;;;;;;20.08;54.67;102099.63;5054722;28;20024;-42
2022/06/13 06:47:00;;;;;;;8.85;1.80;;;;;;;20.47;52.42;102098.38;5054686;28;20025;-43
2022/06/13 06:49:25;;;;;;;7.25;1.98;;;;;;;20.88;52.24;102096.88;5054735;28;20483;-45
2022/06/13 06:51:51;;;;;;;9.85;1.83;;;;;;;20.38;53.87;102104.97;5053210;28;20094;-42
2022/06/13 06:59:56;;;;;;;6.32;1.83;;;;;;;20.84;51.55;102100.97;5054974;28;20122;-42
2022/06/13 07:02:23;;;;;;;6.75;1.70;;;;;;;19.96;52.50;102104.78;5054617;28;20025;-44
2022/06/13 07:04:54;;;;;;;9.70;2.00;;;;;;;20.11;52.80;102109.69;5054583;28;20017;-42
2022/06/13 07:07:20;;;;;;;8.20;1.95;;;;;;;20.21;52.90;102110.78;5054932;28;20032;-41
2022/06/13 07:09:46;;;;;;;8.90;2.00;;;;;;;19.06;55.33;102120.81;5054505;28;20021;-43
2022/06/13 07:12:12;;;;;;;11.25;1.88;;;;;;;18.25;58.61;102117.69;5054811;28;20034;-43
2022/06/13 07:14:38;;;;;;;13.02;2.83;;;;;;;17.86;59.35;102129.03;5054647;28;20024;-42
2022/06/13 07:17:06;;;;;;;6.82;1.80;;;;;;;18.11;57.69;102131.81;5054419;28;20467;-42
2022/06/13 07:19:32;;;;;;;4.85;1.42;;;;;;;19.71;52.22;102134.50;5054377;28;20360;-42
2022/06/13 07:21:58;;;;;;;5.43;1.40;;;;;;;19.90;47.36;102129.28;5053500;28;20025;-42
2022/06/13 07:24:24;;;;;;;8.30;1.65;;;;;;;20.34;47.65;102137.91;5052275;28;20341;-45
2022/06/13 07:26:50;;;;;;;6.00;1.45;;;;;;;20.65;47.30;102139.59;5053713;28;20146;-43
2022/06/13 07:29:16;;;;;;;8.85;1.77;;;;;;;20.78;46.38;102146.53;5054269;28;20036;-44
2022/06/13 07:32:04;;;;;;;7.07;1.90;;;;;;;20.06;48.64;102149.72;5054109;28;20418;-43
2022/06/13 07:34:32;;;;;;;8.90;1.67;;;;;;;20.64;47.40;102144.06;5054293;28;20490;-42
2022/06/13 07:37:00;;;;;;;8.43;1.63;;;;;;;20.09;48.58;102144.03;5054108;28;20025;-43
2022/06/13 07:39:26;;;;;;;5.88;1.50;;;;;;;19.48;50.76;102158.66;5053984;28;20078;-44
2022/06/13 07:41:52;;;;;;;10.90;1.92;;;;;;;18.39;53.09;102156.94;5054158;28;20458;-44
2022/06/13 07:44:27;;;;;;;8.35;1.83;;;;;;;17.97;54.29;102156.38;5054040;28;20025;-43
2022/06/13 07:46:53;;;;;;;11.35;1.98;;;;;;;18.83;51.61;102168.47;5054329;28;20033;-43
2022/06/13 07:49:20;;;;;;;8.57;1.60;;;;;;;20.43;47.90;102163.66;5053612;28;20025;-42
2022/06/13 07:51:46;;;;;;;10.88;1.80;;;;;;;21.19;46.54;102164.94;5053774;28;20025;-44
2022/06/13 07:54:11;;;;;;;7.43;1.55;;;;;;;21.38;45.73;102164.94;5053969;28;20482;-42
2022/06/13 07:56:38;;;;;;;9.13;1.90;;;;;;;20.49;47.44;102168.03;5052677;28;20017;-42
2022/06/13 07:59:05;;;;;;;7.30;1.75;;;;;;;19.88;49.93;102178.53;5052255;28;20547;-43
2022/06/13 08:01:31;;;;;;;10.05;1.75;;;;;;;19.78;50.46;102179.81;5053656;28;20065;-42
2022/06/13 08:03:57;;;;;;;6.22;1.70;;;;;;;18.85;52.66;102188.22;5053874;28;20016;-44
2022/06/13 08:06:25;;;;;;;7.13;2.00;;;;;;;18.87;52.80;102180.97;5053546;28;20028;-42
2022/06/13 08:08:51;;;;;;;6.28;1.60;;;;;;;19.61;50.25;102194.44;5053540;28;20086;-44
2022/06/13 08:11:29;;;;;;;9.38;1.90;;;;;;;20.28;48.58;102184.19;5054048;28;20104;-43
2022/06/13 08:13:54;;;;;;;9.88;1.83;;;;;;;21.70;46.38;102185.69;5053288;28;20029;-44
2022/06/13 08:16:20;;;;;;;6.03;1.50;;;;;;;21.44;45.50;102190.31;5053019;28;20469;-43
2022/06/13 08:18:45;;;;;;;6.32;1.63;;;;;;;21.76;44.53;102197.91;5052588;28;20577;-45
2022/06/13 08:21:11;;;;;;;8.52;1.52;;;;;;;22.32;42.81;102193.91;5053223;28;20467;-43
2022/06/13 08:23:37;;;;;;;7.75;1.70;;;;;;;21.40;45.22;102194.41;5052035;28;20082;-44
2022/06/13 08:26:02;;;;;;;7.53;1.30;;;;;;;21.19;44.06;102191.22;5053262;28;20029;-41
2022/06/13 08:28:28;;;;;;;5.68;1.65;;;;;;;20.61;46.33;102199.66;5053288;28;20021;-44
2022/06/13 08:31:05;;;;;;;7.18;1.50;;;;;;;20.63;46.73;102196.78;5053093;28;20048;-44
2022/06/13 08:33:31;;;;;;;10.13;1.52;;;;;;;21.80;44.25;102193.78;5053251;28;20028;-44
2022/06/13 08:35:56;;;;;;;6.57;1.60;;;;;;;20.89;45.38;102203.56;5053153;28;20301;-44
2022/06/13 08:38:23;;;;;;;7.45;1.58;;;;;;;20.14;47.70;102209.81;5053425;28;20370;-44
2022/06/13 08:40:59;;;;;;;7.47;2.00;;;;;;;19.76;50.13;102221.19;5051383;28;20029;-44
2022/06/13 08:43:49;;;;;;;11.75;2.22;;;;;;;20.58;47.37;102212.41;5055333;28;20534;-45
2022/06/13 08:46:24;;;;;;;10.38;1.85;;;;;;;21.24;44.53;102210.81;5057790;28;20031;-41
2022/06/13 08:48:58;;;;;;;6.50;1.77;;;;;;;22.41;43.77;102225.97;5057091;28;20452;-44
2022/06/13 08:51:58;;;;;;;7.43;1.40;;;;;;;21.37;42.57;102219.31;5057095;28;20021;-43
2022/06/13 08:54:30;;;;;;;7.63;1.40;;;;;;;20.55;45.57;102218.13;5033749;28;20072;-44
2022/06/13 08:56:56;;;;;;;5.45;1.60;;;;;;;20.75;46.20;102223.16;5057585;28;20048;-43
2022/06/13 08:59:34;;;;;;;8.73;2.03;;;;;;;22.26;42.85;102231.72;5057259;28;20031;-43
2022/06/13 09:02:13;;;;;;;7.07;1.48;;;;;;;22.03;42.02;102225.38;5056912;28;20043;-43
2022/06/13 09:04:51;;;;;;;7.10;1.52;;;;;;;21.28;44.01;102219.84;5056918;28;20040;-44
2022/06/13 09:07:58;;;;;;;7.05;1.60;;;;;;;20.60;45.96;102229.56;5057115;28;20023;-42
2022/06/13 09:10:37;;;;;;;4.97;1.33;;;;;;;20.42;46.72;102238.19;5056922;28;20033;-42
2022/06/13 09:13:24;;;;;;;7.80;1.55;;;;;;;19.38;47.69;102248.22;5056600;28;20082;-42
2022/06/13 09:16:20;;;;;;;7.03;1.65;;;;;;;21.09;44.28;102247.97;5056814;28;20072;-43
2022/06/13 09:18:59;;;;;;;8.85;1.38;;;;;;;22.04;42.51;102248.06;5055344;28;20124;-43
2022/06/13 09:22:02;;;;;;;8.85;1.88;;;;;;;22.07;42.18;102252.88;5056757;28;20035;-44
2022/06/13 09:24:42;;;;;;;7.35;1.60;;;;;;;20.95;43.89;102252.63;5046501;28;20028;-41
2022/06/13 09:27:22;;;;;;;6.68;1.45;;;;;;;21.50;41.25;102249.09;5056664;28;20075;-42
2022/06/13 09:29:59;;;;;;;8.60;1.77;;;;;;;22.01;42.24;102253.78;5056245;28;20073;-42
2022/06/13 09:32:34;;;;;;;4.25;1.20;;;;;;;21.55;40.70;102252.66;5056728;28;20086;-43
2022/06/13 09:35:11;;;;;;;8.05;1.48;;;;;;;21.77;41.21;102252.94;5055284;28;20596;-41
2022/06/13 09:37:48;;;;;;;4.75;1.27;;;;;;;22.22;39.73;102252.44;5056769;28;20079;-42
2022/06/13 09:40:15;;;;;;;8.35;1.52;;;;;;;21.29;42.09;102260.88;5056687;28;20033;-43
2022/06/13 09:42:57;;;;;;;8.23;1.85;;;;;;;22.55;41.19;102264.19;5056143;28;20499;-42
2022/06/13 09:45:47;;;;;;;6.47;1.35;;;;;;;22.57;40.31;102267.41;5056391;28;20056;-44
2022/06/13 09:48:32;;;;;;;7.55;1.48;;;;;;;22.91;39.28;102257.84;5055975;28;20021;-43
2022/06/13 09:51:19;;;;;;;7.38;1.50;;;;;;;22.88;38.49;102268.84;5056312;28;20025;-42
2022/06/13 09:53:50;;;;;;;10.80;1.55;;;;;;;23.71;37.52;102269.34;5054571;28;20484;-42
2022/06/13 09:56:21;;;;;;;6.35;1.40;;;;;;;22.90;38.31;102266.78;5055370;28;20490;-43
2022/06/13 09:58:46;;;;;;;5.32;1.50;;;;;;;21.82;40.05;102268.84;5055813;28;20025;-43
2022/06/13 10:01:22;;;;;;;6.33;1.30;;;;;;;20.75;42.24;102262.56;5055624;28;20112;-42
2022/06/13 10:03:56;;;;;;;7.07;1.55;;;;;;;20.73;43.13;102268.00;5056294;28;20266;-44
2022/06/13 10:06:38;;;;;;;4.78;1.33;;;;;;;21.79;39.06;102268.50;5055995;28;20463;-45
2022/06/13 10:09:22;;;;;;;7.55;1.42;;;;;;;22.47;39.94;102261.91;5055576;28;20027;-42
2022/06/13 10:12:03;;;;;;;7.57;1.27;;;;;;;22.04;38.67;102277.00;5055544;28;20353;-44
2022/06/13 10:15:08;;;;;;;3.65;1.33;;;;;;;22.63;37.25;102269.13;5055152;28;20017;-42
2022/06/13 10:17:49;;;;;;;6.05;1.75;;;;;;;23.56;37.38;102267.25;5055812;28;20063;-42
2022/06/13 10:20:26;;;;;;;5.20;1.27;;;;;;;23.09;38.06;102277.19;5055463;28;20094;-43
2022/06/13 10:23:04;;;;;;;7.88;1.30;;;;;;;23.85;35.91;102285.66;5055639;28;20036;-42
2022/06/13 10:25:58;;;;;;;3.63;1.20;;;;;;;24.02;37.11;102285.66;5055541;28;20025;-41
2022/06/13 10:28:57;;;;;;;5.43;1.38;;;;;;;23.39;37.23;102271.66;5055230;28;20029;-42
2022/06/13 10:31:57;;;;;;;6.75;1.40;;;;;;;24.01;35.21;102276.94;5055559;28;20395;-50
2022/06/13 10:34:49;;;;;;;4.45;1.20;;;;;;;23.93;36.15;102276.56;5055584;28;20494;-43
2022/06/13 10:37:18;;;;;;;7.75;1.55;;;;;;;22.88;37.65;102286.50;5055085;28;20017;-43
2022/06/13 10:39:45;;;;;;;3.03;1.08;;;;;;;21.60;38.67;102281.69;5055409;28;20029;-42
2022/06/13 10:42:17;;;;;;;5.00;1.35;;;;;;;20.21;40.73;102296.34;5055253;28;20025;-44
2022/06/13 10:44:42;;;;;;;5.68;1.40;;;;;;;21.93;38.42;102283.06;5055299;28;20048;-41
2022/06/13 10:47:23;;;;;;;5.25;1.60;;;;;;;23.11;38.15;102283.03;5055425;28;20452;-44
2022/06/13 10:49:52;;;;;;;6.57;1.40;;;;;;;22.09;39.93;102287.63;5055393;28;20029;-42
2022/06/13 10:52:24;;;;;;;7.50;1.20;;;;;;;21.13;40.84;102283.31;5054932;28;20384;-44
2022/06/13 10:54:54;;;;;;;4.95;1.70;;;;;;;21.13;41.65;102288.59;5054608;28;20017;-45
2022/06/13 10:57:29;;;;;;;4.80;1.20;;;;;;;22.29;39.15;102289.19;5054834;28;20033;-44
2022/06/13 11:00:10;;;;;;;10.77;1.55;;;;;;;23.08;37.82;102281.66;5055112;28;20078;-45
2022/06/13 11:02:36;;;;;;;7.50;1.67;;;;;;;24.03;36.56;102289.94;5054849;28;20033;-44
2022/06/13 11:05:13;;;;;;;5.55;1.50;;;;;;;22.75;36.71;102292.81;5055125;28;20025;-43
2022/06/13 11:07:45;;;;;;;5.38;1.23;;;;;;;21.58;40.26;102293.50;5054018;28;20028;-43
2022/06/13 11:10:24;;;;;;;;;;;;;;;21.26;40.61;102292.84;5055482;28;20032;-44
2022/06/13 11:12:51;;;;;;;7.95;1.77;;;;;;;22.00;40.07;102290.84;5054675;28;20050;-43
2022/06/13 11:23:57;;;;;;;4.93;1.33;;;;;;;20.86;40.28;102312.53;5055155;28;20039;-43
2022/06/13 11:29:17;;;;;;;6.53;1.40;;;;;;;22.65;37.17;102303.94;5054965;28;20031;-41
2022/06/13 11:31:55;;;;;;;3.63;1.13;;;;;;;22.58;38.85;102302.44;5054602;28;20520;-44
2022/06/13 11:34:33;;;;;;;7.20;1.48;;;;;;;23.48;36.08;102309.00;5053992;28;20104;-43
2022/06/13 11:37:13;;;;;;;6.53;1.30;;;;;;;24.01;35.42;102307.84;5054272;28;20031;-42
2022/06/13 11:39:47;;;;;;;10.75;1.50;;;;;;;23.83;35.96;102307.03;5053992;28;20025;-42
2022/06/13 11:42:26;;;;;;;6.60;1.92;;;;;;;24.00;35.28;102299.13;5053952;28;20028;-42
2022/06/13 11:45:04;;;;;;;6.22;1.40;;;;;;;24.02;36.37;102307.59;5052669;28;20013;-44
2022/06/13 11:47:45;;;;;;;4.88;1.38;;;;;;;25.09;33.17;102305.63;5054557;28;20025;-44
2022/06/13 11:50:21;;;;;;;6.65;1.60;;;;;;;23.79;35.60;102292.69;5054331;28;20036;-42
2022/06/13 11:55:43;;;;;;;3.47;1.20;;;;;;;22.68;36.71;102310.59;5053829;28;20086;-43
2022/06/13 11:58:18;;;;;;;6.05;1.20;;;;;;;21.78;38.72;102294.00;5054038;28;20053;-42
2022/06/13 12:00:51;;;;;;;5.63;1.38;;;;;;;22.11;38.64;102300.59;5053970;28;20029;-42
2022/06/13 12:03:21;;;;;;;;;;;;;;;21.61;39.69;102299.09;5053974;28;20055;-42
2022/06/13 12:05:57;;;;;;;5.63;1.48;;;;;;;21.33;39.58;102302.28;5052302;28;19908;-41
2022/06/13 12:08:26;;;;;;;6.45;1.30;;;;;;;21.80;39.55;102309.56;5052228;28;20032;-41
2022/06/13 12:11:05;;;;;;;6.28;1.30;;;;;;;21.52;38.79;102310.97;5053615;28;20025;-41
2022/06/13 12:13:34;;;;;;;3.90;1.13;;;;;;;21.17;37.71;102305.50;5053303;28;20032;-43
2022/06/13 12:16:33;;;;;;;7.18;1.45;;;;;;;22.30;35.92;102309.22;5053240;28;20021;-45
2022/06/13 12:19:15;;;;;;;3.55;1.30;;;;;;;23.57;35.96;102307.63;5052949;28;20025;-43
2022/06/13 12:22:02;;;;;;;6.60;1.38;;;;;;;23.58;35.53;102310.00;5053687;28;20039;-41